Time;durP1;ratioP1;P1;durP2;ratioP2;P2;SDS_P1;SDS_P2;PMS_P1;PMS_P2;Temp;Humidity;BMP_temperature;BMP_pressure;BME280_temperature;BME280_humidity;BME280_pressure;Samples;Min_cycle;Max_cycle;Signal;HPM_P1;HPM_P2
2023/02/20 00:01:47;;;;;;;5.60;2.90;;;;;;;0.50;76.61;99034.26;105893;1258;60430;-77
2023/02/20 00:04:15;;;;;;;4.00;2.90;;;;;;;0.49;76.61;99030.63;105957;1257;74739;-77
2023/02/20 00:06:45;;;;;;;7.10;2.70;;;;;;;0.48;76.42;99030.98;105533;1258;69791;-75
2023/02/20 00:09:13;;;;;;;4.00;3.30;;;;;;;0.46;76.21;99034.75;105914;1257;73325;-74
2023/02/20 00:11:49;;;;;;;3.40;2.50;;;;;;;0.44;76.11;99031.80;105868;1259;60252;-76
2023/02/20 00:14:22;;;;;;;6.10;2.80;;;;;;;0.41;76.18;99028.44;105838;1257;62116;-78
2023/02/20 00:16:50;;;;;;;6.70;3.00;;;;;;;0.40;75.71;99028.66;105834;1257;75279;-77
2023/02/20 00:19:25;;;;;;;7.70;3.10;;;;;;;0.38;75.74;99030.67;105900;1257;68837;-83
2023/02/20 00:21:54;;;;;;;3.60;2.70;;;;;;;0.37;75.42;99032.99;106418;1260;73463;-75
2023/02/20 00:24:25;;;;;;;5.10;3.00;;;;;;;0.39;75.31;99028.10;106361;1258;61710;-77
2023/02/20 00:26:53;;;;;;;3.70;2.40;;;;;;;0.40;75.02;99019.80;105795;1261;60432;-76
2023/02/20 00:29:24;;;;;;;5.00;3.20;;;;;;;0.39;74.75;99027.81;106020;1259;75064;-75
2023/02/20 00:31:56;;;;;;;4.10;2.30;;;;;;;0.38;74.58;99021.21;105926;1258;69626;-75
2023/02/20 00:34:26;;;;;;;3.50;2.60;;;;;;;0.38;74.25;99027.34;106413;1258;71893;-78
2023/02/20 00:36:59;;;;;;;6.30;3.80;;;;;;;0.37;73.81;99025.38;105868;1257;61333;-76
2023/02/20 00:39:28;;;;;;;2.90;2.70;;;;;;;0.34;73.54;99030.40;105839;1256;61659;-75
2023/02/20 00:41:58;;;;;;;4.10;2.70;;;;;;;0.32;73.22;99022.93;105713;1260;74810;-77
2023/02/20 00:44:26;;;;;;;3.60;1.90;;;;;;;0.31;73.17;99032.57;105879;1258;68044;-77
2023/02/20 00:46:55;;;;;;;5.40;2.30;;;;;;;0.30;72.95;99028.00;105783;1260;74335;-74
2023/02/20 00:49:23;;;;;;;1.70;1.60;;;;;;;0.30;73.02;99026.38;105855;1259;61744;-77
2023/02/20 00:51:52;;;;;;;3.40;2.20;;;;;;;0.30;72.92;99036.42;105864;1261;62350;-75
2023/02/20 00:54:20;;;;;;;3.20;2.00;;;;;;;0.32;72.76;99035.58;105808;1258;74746;-75
2023/02/20 00:56:48;;;;;;;2.90;2.30;;;;;;;0.32;72.61;99029.84;105866;1257;67299;-74
2023/02/20 00:59:17;;;;;;;2.40;2.20;;;;;;;0.31;72.69;99029.06;105996;1257;71903;-74
2023/02/20 01:02:05;;;;;;;4.60;2.00;;;;;;;0.30;72.48;99024.62;105844;1256;62415;-73
2023/02/20 01:04:37;;;;;;;2.30;2.10;;;;;;;0.27;72.49;99032.84;105841;1257;60862;-74
2023/02/20 01:07:05;;;;;;;2.20;2.00;;;;;;;0.24;72.56;99035.48;105833;1260;73802;-74
2023/02/20 01:09:33;;;;;;;2.80;2.20;;;;;;;0.22;72.48;99026.11;105908;1259;69558;-73
2023/02/20 01:12:01;;;;;;;3.70;1.90;;;;;;;0.19;72.57;99025.37;106376;1258;72979;-74
2023/02/20 01:14:30;;;;;;;2.70;2.30;;;;;;;0.16;72.68;99032.48;106592;1257;1003308;-72
2023/02/20 01:17:08;;;;;;;4.70;2.20;;;;;;;0.12;72.65;99027.75;106827;1255;61109;-72
2023/02/20 01:19:37;;;;;;;3.10;2.50;;;;;;;0.11;72.47;99025.91;107336;1257;72785;-73
2023/02/20 01:22:07;;;;;;;2.40;2.00;;;;;;;0.12;72.39;99029.34;106142;1258;1003746;-73
2023/02/20 01:24:36;;;;;;;3.20;2.00;;;;;;;0.14;72.26;99031.75;107029;1257;73275;-72
2023/02/20 01:27:04;;;;;;;3.30;2.20;;;;;;;0.15;72.13;99024.83;106612;1257;60543;-73
2023/02/20 01:29:32;;;;;;;2.50;2.20;;;;;;;0.16;72.13;99030.36;105842;1257;60380;-75
2023/02/20 01:32:01;;;;;;;2.40;1.80;;;;;;;0.14;71.84;99029.11;105801;1260;73997;-71
2023/02/20 01:34:35;;;;;;;3.40;2.00;;;;;;;0.12;71.77;99039.75;105802;1260;68033;-73
2023/02/20 01:37:03;;;;;;;3.60;2.00;;;;;;;0.09;71.55;99034.78;105872;1257;72602;-73
2023/02/20 01:39:32;;;;;;;2.40;1.80;;;;;;;0.07;71.66;99024.33;105784;1259;61360;-73
2023/02/20 01:42:02;;;;;;;5.40;3.70;;;;;;;0.04;71.72;99031.44;105855;1256;62108;-72
2023/02/20 01:44:33;;;;;;;5.40;2.30;;;;;;;0.01;71.83;99033.36;105894;1260;73434;-73
2023/02/20 01:47:09;;;;;;;4.60;2.10;;;;;;;-0.01;72.00;99035.04;105893;1257;69057;-73
2023/02/20 01:49:40;;;;;;;4.10;2.00;;;;;;;-0.03;72.35;99040.39;105861;1257;72816;-74
2023/02/20 01:52:12;;;;;;;2.50;2.30;;;;;;;-0.05;72.34;99039.89;105672;1257;60881;-72
2023/02/20 01:54:42;;;;;;;3.60;2.20;;;;;;;-0.05;72.55;99040.17;105723;1257;60708;-72
2023/02/20 01:57:15;;;;;;;3.00;2.00;;;;;;;-0.05;72.80;99039.73;105735;1255;72650;-71
2023/02/20 01:59:44;;;;;;;2.90;2.50;;;;;;;-0.04;72.57;99039.89;105791;1256;68133;-73
2023/02/20 02:02:14;;;;;;;2.80;2.30;;;;;;;-0.05;72.76;99033.27;105756;1256;73948;-72
2023/02/20 02:04:42;;;;;;;3.20;2.70;;;;;;;-0.06;72.94;99044.90;105792;1258;61050;-74
2023/02/20 02:07:11;;;;;;;2.40;1.80;;;;;;;-0.08;73.03;99030.98;105789;1260;60865;-72
2023/02/20 02:09:48;;;;;;;5.40;2.10;;;;;;;-0.11;73.15;99036.14;105429;1259;542032;-74
2023/02/20 02:12:17;;;;;;;3.50;2.10;;;;;;;-0.14;72.98;99033.52;105552;1257;68815;-73
2023/02/20 02:14:46;;;;;;;3.90;2.50;;;;;;;-0.17;73.16;99031.51;105621;1260;73488;-75
2023/02/20 02:18:06;;;;;;;3.50;2.00;;;;;;;-0.20;73.22;99030.54;105646;1257;61954;-76
2023/02/20 02:20:58;;;;;;;3.20;2.50;;;;;;;-0.23;73.24;99026.69;105407;1263;60615;-74
2023/02/20 02:23:30;;;;;;;3.30;2.10;;;;;;;-0.23;73.28;99032.95;105846;1257;72671;-73
2023/02/20 02:26:37;;;;;;;2.40;2.20;;;;;;;-0.23;73.26;99022.70;105832;1257;67847;-71
2023/02/20 02:29:30;;;;;;;5.20;2.20;;;;;;;-0.23;73.24;99030.30;105698;1260;71405;-74
2023/02/20 02:32:06;;;;;;;5.90;2.20;;;;;;;-0.24;73.20;99029.80;105786;1257;61050;-74
2023/02/20 02:34:54;;;;;;;2.50;1.90;;;;;;;-0.27;73.19;99029.80;105871;1256;62122;-74
2023/02/20 02:37:32;;;;;;;2.20;2.10;;;;;;;-0.30;73.20;99019.64;105808;1260;73529;-74
2023/02/20 02:40:29;;;;;;;8.50;2.70;;;;;;;-0.32;73.40;99025.88;105693;1262;67232;-74
2023/02/20 02:43:03;;;;;;;5.90;1.90;;;;;;;-0.34;73.63;99033.11;105769;1256;74068;-75
2023/02/20 02:45:53;;;;;;;4.80;2.90;;;;;;;-0.38;73.50;99036.02;106023;1259;60460;-73
2023/02/20 02:48:39;;;;;;;3.80;2.50;;;;;;;-0.42;73.69;99030.30;105730;1257;61036;-72
2023/02/20 02:51:12;;;;;;;3.40;2.10;;;;;;;-0.43;73.86;99031.34;105804;1260;75179;-76
2023/02/20 02:53:40;;;;;;;3.50;3.20;;;;;;;-0.42;73.79;99036.38;105748;1261;69068;-73
2023/02/20 02:56:21;;;;;;;3.00;1.80;;;;;;;-0.41;73.63;99035.70;105871;1257;73273;-74
2023/02/20 02:58:50;;;;;;;2.90;2.30;;;;;;;-0.40;73.70;99021.17;105747;1257;60405;-74
2023/02/20 03:01:19;;;;;;;4.10;3.70;;;;;;;-0.42;73.64;99032.13;105807;1256;60450;-74
2023/02/20 03:03:50;;;;;;;5.20;3.20;;;;;;;-0.44;73.64;99042.77;105878;1260;74361;-72
2023/02/20 03:06:27;;;;;;;2.70;2.50;;;;;;;-0.46;73.61;99031.94;105740;1257;67174;-73
2023/02/20 03:08:59;;;;;;;9.10;2.20;;;;;;;-0.50;73.75;99032.20;105588;1259;72869;-72
2023/02/20 03:11:30;;;;;;;;;;;;;;;-0.53;73.80;99028.23;105613;1257;60529;-73
2023/02/20 03:17:00;;;;;;;3.90;2.40;;;;;;;-0.58;74.04;99017.27;105781;1260;73932;-74
2023/02/20 03:19:45;;;;;;;3.50;2.50;;;;;;;-0.59;74.02;99024.85;105747;1257;68965;-73
2023/02/20 03:22:15;;;;;;;7.10;2.60;;;;;;;-0.59;74.19;99027.45;105810;1256;72414;-75
2023/02/20 03:24:54;;;;;;;3.80;2.30;;;;;;;-0.60;74.07;99020.66;105933;1259;60540;-74
2023/02/20 03:27:37;;;;;;;3.90;2.30;;;;;;;-0.61;74.11;99022.71;105898;1257;61183;-75
2023/02/20 03:30:14;;;;;;;6.70;2.30;;;;;;;-0.62;74.00;99029.77;105804;1257;74395;-74
2023/02/20 03:43:54;;;;;;;2.40;2.10;;;;;;;-0.73;74.37;99024.48;105762;1257;74034;-74
2023/02/20 03:46:23;;;;;;;4.30;2.80;;;;;;;-0.73;74.29;99033.22;105832;1256;69786;-73
2023/02/20 03:49:01;;;;;;;3.70;1.80;;;;;;;-0.72;74.27;99023.05;105679;1257;73162;-71
2023/02/20 03:51:30;;;;;;;3.10;2.40;;;;;;;-0.72;74.30;99032.40;105948;1259;60450;-74
2023/02/20 03:54:03;;;;;;;;;;;;;;;-0.73;74.17;99024.48;105913;1260;60345;-75
2023/02/20 03:56:44;;;;;;;3.80;2.40;;;;;;;-0.74;74.14;99028.52;105516;1256;75556;-73
2023/02/20 03:59:22;;;;;;;8.20;2.40;;;;;;;-0.76;74.15;99028.88;105635;1257;69123;-76
2023/02/20 04:01:53;;;;;;;5.10;2.20;;;;;;;-0.79;74.22;99023.84;105749;1257;72603;-73
2023/02/20 04:04:24;;;;;;;7.40;3.50;;;;;;;-0.81;74.24;99026.93;105920;1255;60415;-72
2023/02/20 04:06:52;;;;;;;4.10;2.60;;;;;;;-0.82;74.20;99024.63;105691;1255;60466;-71
2023/02/20 04:09:27;;;;;;;3.80;1.90;;;;;;;-0.82;74.28;99020.77;105684;1257;75635;-74
2023/02/20 04:12:02;;;;;;;8.50;2.30;;;;;;;-0.82;74.25;99026.37;105937;1259;66379;-71
2023/02/20 04:14:31;;;;;;;5.00;2.40;;;;;;;-0.81;74.12;99022.80;105751;1257;72077;-73
2023/02/20 04:17:02;;;;;;;3.80;2.20;;;;;;;-0.79;73.86;99024.52;105749;1259;60396;-73
2023/02/20 04:19:36;;;;;;;8.10;2.80;;;;;;;-0.79;73.86;99013.95;105655;1256;60540;-73
2023/02/20 04:22:06;;;;;;;2.30;2.00;;;;;;;-0.80;73.68;99013.87;105826;1258;74647;-71
2023/02/20 04:24:56;;;;;;;3.30;2.30;;;;;;;-0.80;73.71;99014.80;105899;1260;68094;-71
2023/02/20 04:27:26;;;;;;;3.30;2.50;;;;;;;-0.82;73.64;99014.17;105702;1257;73109;-74
2023/02/20 04:29:55;;;;;;;3.20;2.50;;;;;;;-0.84;73.64;99004.91;105837;1258;60492;-73
2023/02/20 04:32:24;;;;;;;5.90;2.30;;;;;;;-0.85;73.63;99009.84;105757;1257;61087;-71
2023/02/20 04:34:52;;;;;;;6.90;2.90;;;;;;;-0.86;73.54;99021.39;105833;1255;75029;-72
2023/02/20 04:37:21;;;;;;;10.00;4.10;;;;;;;-0.86;73.46;99014.32;105789;1256;69235;-74
2023/02/20 04:39:52;;;;;;;2.60;2.00;;;;;;;-0.84;73.29;99000.40;105614;1260;72657;-75
2023/02/20 04:42:21;;;;;;;3.50;2.70;;;;;;;-0.84;73.00;99025.66;105790;1259;60912;-75
2023/02/20 04:44:49;;;;;;;4.00;3.30;;;;;;;-0.82;73.00;99014.40;105772;1260;60389;-71
2023/02/20 04:47:18;;;;;;;2.50;2.30;;;;;;;-0.82;72.92;99013.34;105890;1256;75057;-77
2023/02/20 04:49:46;;;;;;;4.10;2.40;;;;;;;-0.83;73.00;99011.46;105805;1256;67793;-73
2023/02/20 04:52:17;;;;;;;2.80;2.50;;;;;;;-0.86;72.83;99024.88;105738;1255;72348;-74
2023/02/20 04:54:48;;;;;;;4.60;3.60;;;;;;;-0.89;72.87;99010.81;105722;1256;60414;-74
2023/02/20 04:57:17;;;;;;;3.00;2.20;;;;;;;-0.91;72.71;99013.88;105870;1255;61198;-76
2023/02/20 04:59:46;;;;;;;3.90;3.50;;;;;;;-0.92;72.93;99014.73;105859;1259;74951;-75
2023/02/20 05:02:15;;;;;;;6.00;2.00;;;;;;;-0.92;72.76;99019.69;105507;1257;69603;-74
2023/02/20 05:04:43;;;;;;;6.00;2.90;;;;;;;-0.92;72.69;99026.99;103541;1259;1003542;-73
2023/02/20 05:07:16;;;;;;;2.30;2.10;;;;;;;-0.89;72.57;99029.84;105650;1257;60354;-75
2023/02/20 05:09:44;;;;;;;4.50;2.50;;;;;;;-0.86;72.43;99035.16;105802;1256;61841;-78
2023/02/20 05:12:12;;;;;;;2.70;2.30;;;;;;;-0.85;72.23;99044.81;105728;1255;75346;-80
2023/02/20 05:14:40;;;;;;;2.90;2.00;;;;;;;-0.84;72.15;99039.59;105517;1257;68076;-78
2023/02/20 05:17:08;;;;;;;4.20;2.50;;;;;;;-0.84;72.18;99035.36;105720;1257;73733;-77
2023/02/20 05:19:36;;;;;;;2.10;1.90;;;;;;;-0.84;72.07;99032.77;105718;1259;60461;-79
2023/02/20 05:22:21;;;;;;;5.40;2.40;;;;;;;-0.84;72.15;99030.81;105810;1257;62221;-74
2023/02/20 05:24:50;;;;;;;3.40;3.00;;;;;;;-0.85;72.12;99037.23;105653;1257;72861;-75
2023/02/20 05:27:19;;;;;;;9.10;2.50;;;;;;;-0.85;72.26;99026.87;105738;1260;67031;-74
2023/02/20 05:29:55;;;;;;;8.10;3.90;;;;;;;-0.85;72.17;99037.66;105819;1257;74154;-71
2023/02/20 05:32:25;;;;;;;5.20;2.90;;;;;;;-0.85;72.12;99037.46;105763;1259;61567;-72
2023/02/20 05:34:54;;;;;;;4.20;3.00;;;;;;;-0.83;71.97;99037.54;105938;1256;61412;-70
2023/02/20 05:37:23;;;;;;;4.10;2.30;;;;;;;-0.79;71.92;99047.26;105777;1256;74418;-70
2023/02/20 05:39:51;;;;;;;2.60;1.80;;;;;;;-0.73;71.82;99032.96;105715;1256;68717;-72
2023/02/20 05:42:21;;;;;;;5.00;2.30;;;;;;;-0.69;71.75;99035.23;105759;1260;71692;-74
2023/02/20 05:44:50;;;;;;;2.80;2.30;;;;;;;-0.66;71.43;99042.23;105816;1256;61470;-74
2023/02/20 05:47:19;;;;;;;6.70;2.30;;;;;;;-0.64;71.23;99039.15;105710;1256;62387;-72
2023/02/20 05:49:49;;;;;;;4.10;2.30;;;;;;;-0.62;71.25;99038.72;105676;1259;74219;-72
2023/02/20 05:52:17;;;;;;;4.70;2.40;;;;;;;-0.61;71.12;99035.27;105824;1257;67636;-76
2023/02/20 05:54:45;;;;;;;4.60;1.90;;;;;;;-0.61;71.26;99043.23;105643;1257;72957;-72
2023/02/20 05:57:14;;;;;;;5.50;2.70;;;;;;;-0.62;71.24;99039.56;105564;1262;60973;-71
2023/02/20 05:59:43;;;;;;;4.80;2.20;;;;;;;-0.61;71.12;99044.24;105640;1257;62205;-73
2023/02/20 06:02:11;;;;;;;2.70;2.40;;;;;;;-0.60;71.20;99049.78;105739;1257;75450;-73
2023/02/20 06:04:39;;;;;;;4.10;2.30;;;;;;;-0.60;71.11;99064.12;105548;1257;67410;-76
2023/02/20 06:07:09;;;;;;;5.10;3.00;;;;;;;-0.59;70.89;99073.73;105886;1259;73904;-78
2023/02/20 06:09:41;;;;;;;3.20;2.30;;;;;;;-0.57;71.00;99055.00;104873;1257;1003126;-71
2023/02/20 06:12:11;;;;;;;3.50;3.20;;;;;;;-0.53;70.89;99063.60;105780;1256;62269;-76
2023/02/20 06:14:40;;;;;;;2.90;2.50;;;;;;;-0.49;70.99;99065.38;105759;1255;75120;-75
2023/02/20 06:17:10;;;;;;;2.60;2.30;;;;;;;-0.46;70.70;99066.80;105648;1257;68573;-74
2023/02/20 06:19:39;;;;;;;4.30;2.40;;;;;;;-0.45;70.72;99066.45;105691;1260;74744;-73
2023/02/20 06:22:07;;;;;;;2.30;2.00;;;;;;;-0.44;70.76;99061.79;105720;1256;60431;-75
2023/02/20 06:24:36;;;;;;;3.90;2.70;;;;;;;-0.44;70.57;99060.69;105625;1259;61972;-73
2023/02/20 06:27:07;;;;;;;2.50;2.20;;;;;;;-0.44;70.75;99073.94;105792;1255;74838;-70
2023/02/20 06:29:36;;;;;;;7.20;2.10;;;;;;;-0.45;70.49;99068.01;105609;1256;68751;-72
2023/02/20 06:32:04;;;;;;;2.70;2.10;;;;;;;-0.45;70.63;99074.41;105443;1255;72611;-72
2023/02/20 06:34:37;;;;;;;4.40;2.50;;;;;;;-0.45;70.84;99068.94;105866;1257;61351;-73
2023/02/20 06:37:06;;;;;;;3.60;2.40;;;;;;;-0.43;70.80;99079.14;105755;1256;60435;-75
2023/02/20 06:39:34;;;;;;;3.90;2.40;;;;;;;-0.42;70.71;99078.94;105792;1258;73325;-72
2023/02/20 06:42:02;;;;;;;3.90;2.70;;;;;;;-0.39;70.73;99066.65;105708;1256;70245;-73
2023/02/20 06:44:32;;;;;;;6.70;2.70;;;;;;;-0.35;70.35;99089.22;105858;1257;74271;-76
2023/02/20 06:47:00;;;;;;;4.80;2.60;;;;;;;-0.32;70.19;99068.34;105790;1256;60708;-73
2023/02/20 06:49:28;;;;;;;6.80;3.00;;;;;;;-0.28;70.21;99077.36;105682;1259;61105;-72
2023/02/20 06:51:56;;;;;;;3.00;2.00;;;;;;;-0.24;70.03;99079.45;105536;1256;74620;-72
2023/02/20 06:54:24;;;;;;;5.60;2.50;;;;;;;-0.20;69.81;99077.55;105553;1259;67242;-73
2023/02/20 06:56:53;;;;;;;3.10;2.00;;;;;;;-0.18;69.65;99073.77;105451;1257;73445;-74
2023/02/20 06:59:22;;;;;;;3.90;2.90;;;;;;;-0.17;69.57;99088.75;105579;1257;60495;-74
2023/02/20 07:01:50;;;;;;;4.60;2.90;;;;;;;-0.15;69.60;99082.35;105749;1255;60338;-75
2023/02/20 07:04:20;;;;;;;5.20;2.80;;;;;;;-0.13;69.63;99072.58;105827;1259;74364;-77
2023/02/20 07:06:49;;;;;;;6.80;3.20;;;;;;;-0.10;69.55;99080.66;105941;1262;69015;-75
2023/02/20 07:09:19;;;;;;;5.30;2.20;;;;;;;-0.08;69.48;99083.22;107560;1256;73240;-76
2023/02/20 07:11:49;;;;;;;3.90;2.80;;;;;;;-0.06;69.37;99073.97;107683;1257;59932;-75
2023/02/20 07:14:17;;;;;;;3.70;2.90;;;;;;;-0.04;69.36;99072.80;107542;1255;59303;-74
2023/02/20 07:16:46;;;;;;;5.30;3.40;;;;;;;-0.00;69.24;99086.75;105944;1259;74471;-78
2023/02/20 07:19:21;;;;;;;5.70;2.10;;;;;;;0.03;68.90;99090.59;105680;1260;69381;-74
2023/02/20 07:21:49;;;;;;;7.20;3.10;;;;;;;0.06;68.81;99081.73;105840;1257;72649;-75
2023/02/20 07:24:18;;;;;;;5.10;4.10;;;;;;;0.09;68.81;99081.87;105796;1257;60380;-75
2023/02/20 07:26:47;;;;;;;4.10;2.40;;;;;;;0.14;68.59;99091.13;105703;1256;61711;-76
2023/02/20 07:29:15;;;;;;;5.50;2.20;;;;;;;0.17;68.50;99109.80;105563;1256;74602;-73
2023/02/20 07:31:43;;;;;;;5.40;2.80;;;;;;;0.19;68.20;99091.40;105776;1257;68560;-76
2023/02/20 07:34:12;;;;;;;6.80;2.40;;;;;;;0.21;68.25;99091.60;105501;1257;74140;-72
2023/02/20 07:36:41;;;;;;;6.40;2.30;;;;;;;0.24;67.87;99091.73;105602;1259;60411;-74
2023/02/20 07:39:11;;;;;;;6.00;3.60;;;;;;;0.28;67.89;99078.36;105874;1255;61195;-75
2023/02/20 07:41:40;;;;;;;7.60;2.80;;;;;;;0.33;67.99;99089.52;105860;1260;73254;-71
2023/02/20 07:44:29;;;;;;;6.20;3.50;;;;;;;0.37;67.19;99091.26;105793;1257;68332;-72
2023/02/20 07:46:57;;;;;;;7.20;3.60;;;;;;;0.39;67.35;99076.64;105757;1256;71452;-72
2023/02/20 07:49:26;;;;;;;3.20;2.20;;;;;;;0.44;67.07;99093.46;105873;1259;60342;-71
2023/02/20 07:51:56;;;;;;;2.60;2.10;;;;;;;0.49;66.70;99091.43;105784;1256;61874;-72
2023/02/20 07:54:26;;;;;;;2.70;2.50;;;;;;;0.55;66.53;99072.91;105881;1255;73478;-73
2023/02/20 07:56:54;;;;;;;5.00;2.60;;;;;;;0.59;66.22;99084.83;105779;1260;70002;-72
2023/02/20 07:59:22;;;;;;;2.90;2.50;;;;;;;0.64;66.14;99075.73;105750;1257;72563;-71
2023/02/20 08:01:50;;;;;;;3.50;1.90;;;;;;;0.69;65.86;99071.66;105605;1257;60453;-73
2023/02/20 08:04:19;;;;;;;3.40;2.20;;;;;;;0.76;65.17;99100.09;106180;1255;60445;-74
2023/02/20 08:06:47;;;;;;;6.20;2.30;;;;;;;0.79;64.53;99083.36;105817;1259;74797;-72
2023/02/20 08:09:16;;;;;;;2.60;2.20;;;;;;;0.83;64.87;99074.20;105837;1257;69031;-70
2023/02/20 08:11:44;;;;;;;2.80;2.00;;;;;;;0.88;64.59;99080.08;105672;1257;74617;-73
2023/02/20 08:14:13;;;;;;;3.00;2.00;;;;;;;0.93;63.52;99095.17;105747;1255;60878;-72
2023/02/20 08:16:41;;;;;;;2.80;2.00;;;;;;;0.96;63.08;99104.69;105745;1260;61947;-73
2023/02/20 08:19:10;;;;;;;4.70;3.00;;;;;;;0.98;62.42;99094.33;105846;1260;75421;-75
2023/02/20 08:21:39;;;;;;;3.30;2.40;;;;;;;1.00;62.02;99099.35;105814;1259;68827;-75
2023/02/20 08:24:08;;;;;;;2.90;2.30;;;;;;;1.02;61.55;99110.27;105872;1257;72686;-74
2023/02/20 08:26:44;;;;;;;6.00;2.50;;;;;;;1.04;61.80;99088.51;105770;1260;60537;-76
2023/02/20 08:29:13;;;;;;;3.00;2.00;;;;;;;1.11;62.01;99089.62;104888;1256;1002560;-76
2023/02/20 08:31:42;;;;;;;2.60;2.10;;;;;;;1.18;61.54;99092.46;105602;1257;73472;-77
2023/02/20 08:34:11;;;;;;;6.00;2.90;;;;;;;1.26;60.73;99102.15;105852;1259;68225;-75
2023/02/20 08:36:39;;;;;;;2.30;1.90;;;;;;;1.33;60.81;99098.56;103590;1257;1005604;-74
2023/02/20 08:39:08;;;;;;;2.50;2.20;;;;;;;1.39;59.66;99112.99;105622;1256;60442;-73
2023/02/20 08:41:43;;;;;;;3.90;2.50;;;;;;;1.44;59.70;99107.77;105797;1260;61158;-71
2023/02/20 08:44:12;;;;;;;3.90;2.30;;;;;;;1.50;59.54;99087.11;105774;1259;74549;-72
2023/02/20 08:46:47;;;;;;;3.80;2.20;;;;;;;1.57;59.16;99083.50;105814;1257;69364;-76
2023/02/20 08:49:17;;;;;;;4.20;2.30;;;;;;;1.63;59.02;99096.81;105723;1257;73136;-77
2023/02/20 08:51:51;;;;;;;4.80;3.20;;;;;;;1.66;58.29;99130.33;105780;1260;60466;-73
2023/02/20 08:54:19;;;;;;;2.50;2.00;;;;;;;1.68;58.28;99080.24;105766;1257;60739;-72
2023/02/20 08:56:47;;;;;;;5.20;2.40;;;;;;;1.69;58.40;99088.73;105707;1262;74585;-75
2023/02/20 08:59:18;;;;;;;3.30;2.70;;;;;;;1.72;57.87;99093.66;105797;1257;69816;-76
2023/02/20 09:01:46;;;;;;;3.70;2.20;;;;;;;1.72;57.60;99079.15;105904;1257;70664;-75
2023/02/20 09:04:15;;;;;;;5.00;2.40;;;;;;;1.72;56.93;99084.56;105692;1257;61346;-78
2023/02/20 09:06:44;;;;;;;5.30;3.50;;;;;;;1.73;56.92;99077.42;105741;1256;60984;-75
2023/02/20 09:09:12;;;;;;;3.20;2.90;;;;;;;1.74;56.87;99098.14;105496;1257;73663;-76
2023/02/20 09:11:41;;;;;;;5.70;2.80;;;;;;;1.75;56.94;99084.20;105734;1260;67864;-79
2023/02/20 09:14:09;;;;;;;2.90;2.30;;;;;;;1.77;56.97;99073.06;105890;1257;74436;-76
2023/02/20 09:16:40;;;;;;;6.30;4.00;;;;;;;1.82;57.13;99073.41;105711;1255;60613;-75
2023/02/20 09:19:09;;;;;;;4.80;3.60;;;;;;;1.89;56.71;99077.38;105815;1257;61748;-74
2023/02/20 09:21:37;;;;;;;2.80;2.00;;;;;;;1.94;56.04;99090.54;105641;1257;73869;-76
2023/02/20 09:24:06;;;;;;;3.70;2.10;;;;;;;1.94;55.84;99080.75;105756;1257;68850;-78
2023/02/20 09:26:34;;;;;;;4.50;4.00;;;;;;;1.96;56.09;99068.27;105707;1257;72500;-73
2023/02/20 09:29:02;;;;;;;3.10;1.90;;;;;;;2.01;56.02;99095.82;105645;1262;60423;-75
2023/02/20 09:31:30;;;;;;;8.60;3.50;;;;;;;2.05;55.47;99090.19;105681;1257;61863;-73
2023/02/20 09:33:59;;;;;;;3.20;2.40;;;;;;;2.06;54.97;99111.06;105654;1257;73160;-75
2023/02/20 09:36:28;;;;;;;2.60;1.70;;;;;;;2.07;55.15;99083.68;105811;1259;69826;-76
2023/02/20 09:38:59;;;;;;;2.00;1.80;;;;;;;2.08;54.72;99063.40;105713;1257;73415;-76
2023/02/20 09:41:40;;;;;;;3.40;2.50;;;;;;;2.11;55.15;99066.83;105862;1255;61267;-74
2023/02/20 09:44:21;;;;;;;3.10;2.20;;;;;;;2.16;54.28;99084.79;105751;1256;60626;-73
2023/02/20 09:46:50;;;;;;;3.20;2.90;;;;;;;2.15;54.21;99076.23;105654;1257;73395;-73
2023/02/20 09:49:26;;;;;;;5.60;3.00;;;;;;;2.16;54.04;99056.98;105721;1257;69478;-78
2023/02/20 09:51:58;;;;;;;5.00;2.80;;;;;;;2.18;54.24;99039.04;105953;1257;72017;-78
2023/02/20 09:54:42;;;;;;;5.10;2.90;;;;;;;2.24;54.00;99040.44;105565;1257;60550;-81
2023/02/20 09:57:15;;;;;;;5.30;2.40;;;;;;;2.30;54.12;99048.56;105719;1256;60466;-80
2023/02/20 09:59:49;;;;;;;4.40;3.20;;;;;;;2.34;54.20;99024.90;105713;1261;75311;-76
2023/02/20 10:02:21;;;;;;;2.70;2.10;;;;;;;2.39;54.05;99031.13;103562;1257;1003785;-79
2023/02/20 10:04:52;;;;;;;4.00;3.60;;;;;;;2.45;53.48;99030.20;105761;1257;71976;-79
2023/02/20 10:07:35;;;;;;;3.20;2.90;;;;;;;2.52;53.46;99032.52;105705;1257;60364;-77
2023/02/20 10:10:26;;;;;;;2.70;2.10;;;;;;;2.57;52.60;99007.00;105774;1260;60450;-76
2023/02/20 10:13:08;;;;;;;3.40;2.40;;;;;;;2.61;52.07;99017.30;105778;1257;73597;-72
2023/02/20 10:16:03;;;;;;;4.30;2.70;;;;;;;2.62;52.05;99010.40;105764;1257;66294;-72
2023/02/20 10:18:32;;;;;;;4.00;3.70;;;;;;;2.67;52.06;99027.80;105788;1259;73940;-75
2023/02/20 10:21:21;;;;;;;3.90;3.40;;;;;;;2.68;51.74;99005.86;105298;1257;60463;-81
2023/02/20 10:23:51;;;;;;;5.00;2.50;;;;;;;2.70;51.78;99000.20;105745;1257;61182;-79
2023/02/20 10:26:38;;;;;;;4.30;3.10;;;;;;;2.75;51.70;98993.08;105746;1256;75156;-76
2023/02/20 10:29:17;;;;;;;2.70;2.30;;;;;;;2.80;51.45;98988.98;105689;1257;68606;-78
2023/02/20 10:31:52;;;;;;;3.00;2.00;;;;;;;2.87;51.15;98987.38;105879;1254;74084;-82
2023/02/20 10:34:34;;;;;;;5.10;2.90;;;;;;;2.96;50.91;98989.90;107201;1257;60672;-79
2023/02/20 10:37:21;;;;;;;3.50;3.00;;;;;;;3.09;50.89;98994.48;105900;1257;60443;-74
2023/02/20 10:39:54;;;;;;;4.10;2.20;;;;;;;3.23;50.57;98969.79;105598;1262;76831;-78
2023/02/20 10:42:47;;;;;;;2.50;2.20;;;;;;;3.31;50.44;98979.59;105723;1262;67118;-77
2023/02/20 10:45:27;;;;;;;3.30;2.80;;;;;;;3.34;50.19;99005.66;105588;1262;71517;-77
2023/02/20 10:48:01;;;;;;;5.90;2.20;;;;;;;3.26;50.09;98987.41;105614;1260;61088;-84
2023/02/20 10:50:34;;;;;;;3.50;3.00;;;;;;;3.21;50.13;98987.68;105615;1260;61617;-75
2023/02/20 10:53:19;;;;;;;2.70;2.40;;;;;;;3.20;50.12;98970.55;105590;1261;73388;-73
2023/02/20 10:56:21;;;;;;;5.00;2.40;;;;;;;3.21;49.94;98977.73;105346;1260;70002;-72
2023/02/20 10:59:16;;;;;;;3.90;2.20;;;;;;;3.18;50.23;98981.89;105544;1264;73454;-77
2023/02/20 11:01:48;;;;;;;6.90;2.30;;;;;;;3.13;50.27;98983.23;105297;1264;60538;-72
2023/02/20 11:04:20;;;;;;;2.90;2.70;;;;;;;3.12;50.49;98961.27;105558;1265;60621;-73
2023/02/20 11:07:12;;;;;;;5.30;2.20;;;;;;;3.13;50.79;98951.56;104683;1260;72303;-75
2023/02/20 11:09:41;;;;;;;2.40;2.20;;;;;;;3.17;51.00;98961.59;105631;1262;67618;-76
2023/02/20 11:12:45;;;;;;;3.70;2.00;;;;;;;3.24;51.06;98962.95;105544;1260;74034;-71
2023/02/20 11:15:18;;;;;;;3.20;2.40;;;;;;;3.31;50.83;98947.59;105394;1261;60445;-69
2023/02/20 11:17:52;;;;;;;4.30;2.40;;;;;;;3.37;50.92;98930.98;103557;1258;1003274;-70
2023/02/20 11:20:45;;;;;;;6.70;2.50;;;;;;;3.48;50.86;98939.75;105846;1259;74492;-69
2023/02/20 11:23:32;;;;;;;5.70;2.50;;;;;;;3.57;50.63;98935.21;105412;1257;69652;-74
2023/02/20 11:26:14;;;;;;;3.10;2.70;;;;;;;3.66;50.79;98929.38;103796;1260;1002764;-69
2023/02/20 11:28:42;;;;;;;6.40;3.50;;;;;;;3.77;50.55;98946.42;105218;1259;60562;-80
2023/02/20 11:31:11;;;;;;;5.40;2.90;;;;;;;3.87;50.18;98945.73;105843;1256;61095;-81
2023/02/20 11:33:46;;;;;;;4.80;2.70;;;;;;;3.95;50.01;98942.06;105472;1257;74371;-80
2023/02/20 11:36:16;;;;;;;3.10;2.60;;;;;;;4.01;49.53;98946.11;105636;1262;68503;-77
2023/02/20 11:38:48;;;;;;;5.60;2.40;;;;;;;3.99;49.58;98963.08;105848;1263;73728;-76
2023/02/20 11:41:21;;;;;;;4.00;2.40;;;;;;;3.90;49.74;98967.25;105677;1262;61289;-70
2023/02/20 11:44:17;;;;;;;5.10;3.70;;;;;;;3.79;50.12;98952.21;105837;1257;61068;-69
2023/02/20 11:46:46;;;;;;;4.80;3.10;;;;;;;3.70;49.64;98948.71;105772;1259;75529;-69
2023/02/20 11:49:27;;;;;;;4.90;3.10;;;;;;;3.64;48.78;98942.17;105771;1257;69003;-69
2023/02/20 11:52:19;;;;;;;4.40;3.10;;;;;;;3.64;49.09;98936.79;105232;1256;74045;-72
2023/02/20 11:54:55;;;;;;;4.80;3.30;;;;;;;3.65;49.27;98930.17;105485;1257;60825;-81
2023/02/20 11:57:26;;;;;;;5.50;3.10;;;;;;;3.66;49.35;98960.09;105907;1257;60413;-81
2023/02/20 12:00:19;;;;;;;2.70;2.40;;;;;;;3.68;49.05;98935.05;105969;1262;75485;-71
2023/02/20 12:02:50;;;;;;;6.70;2.50;;;;;;;3.72;48.70;98935.65;105311;1257;69615;-75
2023/02/20 12:05:19;;;;;;;3.60;2.50;;;;;;;3.78;48.56;98929.48;105958;1259;72675;-66
2023/02/20 12:07:51;;;;;;;3.40;3.00;;;;;;;3.85;48.42;98946.27;105077;1255;62730;-74
2023/02/20 12:10:38;;;;;;;3.40;2.80;;;;;;;3.92;48.44;98944.48;104945;1257;61759;-74